createdAt,value
2023-01-01T00:00:13.546Z,16.37
2023-01-01T00:01:13.438Z,16.32
2023-01-01T00:02:13.449Z,16.34
2023-01-01T00:03:13.373Z,16.33
2023-01-01T00:04:13.361Z,16.33
2023-01-01T00:05:13.280Z,16.30
2023-01-01T00:06:13.231Z,16.26
2023-01-01T00:07:13.207Z,16.33
2023-01-01T00:08:13.162Z,16.23
2023-01-01T00:09:13.142Z,16.36
2023-01-01T00:10:13.095Z,16.40
2023-01-01T00:11:13.059Z,16.30
2023-01-01T00:12:13.015Z,16.30
2023-01-01T00:13:12.968Z,16.34
2023-01-01T00:14:12.949Z,16.36
2023-01-01T00:15:12.884Z,16.34
2023-01-01T00:16:12.899Z,16.33
2023-01-01T00:17:12.808Z,16.40
2023-01-01T00:18:12.767Z,16.40
2023-01-01T00:19:12.727Z,16.40
2023-01-01T00:20:12.704Z,16.41
2023-01-01T00:21:12.663Z,16.36
2023-01-01T00:22:52.115Z,16.41
2023-01-01T00:23:12.571Z,16.41
2023-01-01T00:24:12.543Z,16.45
2023-01-01T00:25:12.501Z,16.37
2023-01-01T00:26:12.473Z,16.34
2023-01-01T00:27:12.428Z,16.47
2023-01-01T00:28:12.388Z,16.45
2023-01-01T00:29:12.345Z,16.40
2023-01-01T00:30:12.311Z,16.40
2023-01-01T00:31:12.266Z,16.42
2023-01-01T00:32:14.339Z,16.42
2023-01-01T00:33:12.202Z,16.36
2023-01-01T00:34:12.153Z,16.37
2023-01-01T00:35:12.114Z,16.42
2023-01-01T00:36:12.073Z,16.37
2023-01-01T00:37:12.036Z,16.50
2023-01-01T00:38:12.014Z,16.37
2023-01-01T00:39:11.962Z,16.40
2023-01-01T00:40:11.935Z,16.51
2023-01-01T00:41:11.888Z,16.42
2023-01-01T00:42:11.844Z,16.45
2023-01-01T00:43:11.803Z,16.36
2023-01-01T00:44:11.777Z,16.47
2023-01-01T00:45:17.097Z,16.29
2023-01-01T00:46:11.762Z,16.37
2023-01-01T00:47:11.659Z,16.32
2023-01-01T00:48:11.616Z,16.30
2023-01-01T00:49:11.574Z,16.23
2023-01-01T00:50:11.545Z,16.26
2023-01-01T00:51:11.603Z,16.26
2023-01-01T00:52:11.455Z,16.42
2023-01-01T00:53:11.433Z,16.41
2023-01-01T00:54:11.382Z,16.40
2023-01-01T00:55:11.346Z,16.42
2023-01-01T00:56:11.318Z,16.41
2023-01-01T00:57:11.260Z,16.44
2023-01-01T00:58:11.225Z,16.41
2023-01-01T00:59:11.185Z,16.40
2023-01-01T01:00:11.156Z,16.42
2023-01-01T01:01:11.183Z,16.42
2023-01-01T01:02:11.262Z,16.41
2023-01-01T01:03:11.066Z,16.33
2023-01-01T01:04:10.997Z,16.45
2023-01-01T01:05:10.980Z,16.30
2023-01-01T01:06:10.914Z,16.22
2023-01-01T01:07:10.881Z,16.16
2023-01-01T01:08:10.850Z,16.18
2023-01-01T01:09:10.801Z,16.13
2023-01-01T01:10:10.770Z,16.30
2023-01-01T01:11:10.728Z,16.22
2023-01-01T01:12:17.925Z,16.29
2023-01-01T01:13:10.645Z,16.29
2023-01-01T01:14:10.621Z,16.27
2023-01-01T01:15:10.572Z,16.29
2023-01-01T01:16:10.535Z,16.27
2023-01-01T01:17:10.492Z,16.30
2023-01-01T01:18:10.457Z,16.32
2023-01-01T01:19:10.418Z,16.25
2023-01-01T01:20:10.389Z,16.23
2023-01-01T01:21:10.359Z,16.23
2023-01-01T01:22:10.320Z,16.22
2023-01-01T01:23:10.265Z,16.23
2023-01-01T01:24:10.229Z,16.33
2023-01-01T01:25:10.181Z,16.27
2023-01-01T01:26:10.164Z,16.36
2023-01-01T01:27:10.108Z,16.32
2023-01-01T01:28:10.069Z,16.26
2023-01-01T01:29:10.029Z,16.25
2023-01-01T01:30:10.000Z,16.17
2023-01-01T01:31:10.004Z,16.16
2023-01-01T01:32:09.928Z,16.22
2023-01-01T01:33:09.876Z,16.11
2023-01-01T01:34:15.384Z,16.10
2023-01-01T01:35:09.794Z,16.08
2023-01-01T01:36:09.760Z,16.13
2023-01-01T01:37:09.736Z,16.13
2023-01-01T01:38:09.707Z,16.07
2023-01-01T01:39:09.643Z,16.13
2023-01-01T01:40:09.611Z,16.10
2023-01-01T01:41:20.271Z,16.13
2023-01-01T01:42:09.527Z,16.08
2023-01-01T01:43:09.496Z,16.13
2023-01-01T01:44:09.470Z,16.13
2023-01-01T01:45:09.420Z,16.18
2023-01-01T01:46:09.401Z,16.23
2023-01-01T01:47:09.339Z,16.16
2023-01-01T01:48:09.297Z,15.96
2023-01-01T01:49:09.268Z,15.96
2023-01-01T01:50:09.223Z,15.96
2023-01-01T01:51:09.178Z,15.91
2023-01-01T01:52:09.143Z,15.95
2023-01-01T01:53:09.104Z,15.98
2023-01-01T01:54:09.064Z,15.93
2023-01-01T01:55:09.034Z,15.92
2023-01-01T01:56:08.993Z,15.96
2023-01-01T01:57:08.948Z,15.88
2023-01-01T01:58:08.914Z,15.88
2023-01-01T01:59:08.874Z,15.91
2023-01-01T02:00:10.879Z,15.89
2023-01-01T02:01:08.905Z,15.78
2023-01-01T02:02:08.902Z,15.92
2023-01-01T02:03:08.775Z,15.89
2023-01-01T02:04:08.683Z,15.88
2023-01-01T02:05:08.646Z,15.92
2023-01-01T02:06:08.598Z,15.84
2023-01-01T02:07:08.580Z,15.92
2023-01-01T02:08:08.527Z,15.93
2023-01-01T02:09:08.495Z,15.91
2023-01-01T02:10:08.451Z,15.85
2023-01-01T02:11:08.410Z,15.92
2023-01-01T02:12:08.385Z,15.98
2023-01-01T02:13:08.328Z,15.91
2023-01-01T02:14:08.292Z,15.91
2023-01-01T02:15:08.251Z,15.88
2023-01-01T02:16:08.248Z,15.88
2023-01-01T02:17:08.179Z,15.86
2023-01-01T02:18:08.148Z,15.89
2023-01-01T02:19:08.111Z,15.84
2023-01-01T02:20:08.060Z,15.78
2023-01-01T02:21:08.016Z,15.84
2023-01-01T02:22:07.987Z,15.80
2023-01-01T02:23:07.941Z,15.81
2023-01-01T02:24:07.915Z,15.81
2023-01-01T02:25:07.879Z,15.89
2023-01-01T02:26:07.844Z,15.78
2023-01-01T02:27:07.792Z,15.85
2023-01-01T02:28:07.747Z,15.84
2023-01-01T02:29:07.716Z,15.91
2023-01-01T02:30:07.673Z,15.76
2023-01-01T02:31:07.689Z,15.78
2023-01-01T02:32:07.591Z,15.84
2023-01-01T02:33:07.553Z,15.81
2023-01-01T02:34:07.519Z,15.85
2023-01-01T02:35:07.476Z,15.77
2023-01-01T02:36:07.455Z,15.85
2023-01-01T02:37:07.409Z,15.76
2023-01-01T02:38:07.364Z,15.80
2023-01-01T02:39:07.320Z,15.74
2023-01-01T02:40:07.282Z,15.76
2023-01-01T02:41:07.255Z,15.73
2023-01-01T02:42:07.218Z,15.73
2023-01-01T02:43:07.162Z,15.85
2023-01-01T02:44:07.132Z,15.71
2023-01-01T02:45:07.091Z,15.77
2023-01-01T02:46:07.085Z,15.73
2023-01-01T02:47:07.008Z,15.76
2023-01-01T02:48:06.976Z,15.78
2023-01-01T02:49:10.407Z,15.85
2023-01-01T02:50:06.896Z,15.88
2023-01-01T02:51:06.868Z,15.81
2023-01-01T02:52:06.838Z,15.76
2023-01-01T02:53:06.788Z,15.73
2023-01-01T02:54:06.740Z,15.70
2023-01-01T02:55:06.703Z,15.71
2023-01-01T02:56:06.666Z,15.67
2023-01-01T02:57:06.630Z,15.66
2023-01-01T02:58:06.597Z,15.74
2023-01-01T02:59:06.583Z,15.66
2023-01-01T03:00:06.526Z,15.68
2023-01-01T03:01:06.484Z,15.76
2023-01-01T03:02:06.508Z,15.71
2023-01-01T03:03:06.501Z,15.73
2023-01-01T03:04:06.361Z,15.70
2023-01-01T03:05:06.325Z,15.76
2023-01-01T03:06:06.273Z,15.76
2023-01-01T03:07:06.240Z,15.73
2023-01-01T03:08:06.199Z,15.67
2023-01-01T03:09:06.165Z,15.66
2023-01-01T03:10:06.121Z,15.81
2023-01-01T03:11:06.084Z,15.66
2023-01-01T03:12:06.041Z,15.70
2023-01-01T03:13:06.006Z,15.71
2023-01-01T03:14:05.972Z,15.67
2023-01-01T03:15:05.926Z,15.53
2023-01-01T03:16:05.981Z,15.56
2023-01-01T03:17:05.858Z,15.53
2023-01-01T03:18:05.809Z,15.59
2023-01-01T03:19:05.770Z,15.56
2023-01-01T03:20:05.741Z,15.70
2023-01-01T03:21:05.693Z,15.60
2023-01-01T03:22:05.657Z,15.62
2023-01-01T03:23:05.621Z,15.56
2023-01-01T03:24:05.574Z,15.55
2023-01-01T03:25:05.551Z,15.48
2023-01-01T03:26:05.513Z,15.55
2023-01-01T03:27:05.459Z,15.56
2023-01-01T03:28:05.421Z,15.41
2023-01-01T03:29:05.378Z,15.44
2023-01-01T03:30:05.353Z,15.49
2023-01-01T03:31:05.332Z,15.60
2023-01-01T03:32:05.274Z,15.55
2023-01-01T03:33:05.233Z,15.48
2023-01-01T03:34:05.195Z,15.58
2023-01-01T03:35:05.143Z,15.55
2023-01-01T03:36:05.118Z,15.53
2023-01-01T03:37:05.070Z,15.58
2023-01-01T03:38:05.039Z,15.60
2023-01-01T03:39:04.989Z,15.62
2023-01-01T03:40:04.955Z,15.51
2023-01-01T03:41:04.951Z,15.67
2023-01-01T03:42:04.877Z,15.49
2023-01-01T03:43:04.835Z,15.56
2023-01-01T03:44:04.802Z,15.62
2023-01-01T03:45:04.775Z,15.52
2023-01-01T03:46:04.716Z,15.56
2023-01-01T03:47:04.715Z,15.59
2023-01-01T03:48:04.642Z,15.59
2023-01-01T03:49:04.806Z,15.60
2023-01-01T03:50:04.563Z,15.51
2023-01-01T03:51:04.527Z,15.53
2023-01-01T03:52:04.500Z,15.60
2023-01-01T03:53:04.453Z,15.66
2023-01-01T03:54:04.419Z,15.67
2023-01-01T03:55:04.381Z,15.55
2023-01-01T03:56:04.332Z,15.55
2023-01-01T03:57:04.292Z,15.55
2023-01-01T03:58:04.252Z,15.49
2023-01-01T03:59:04.221Z,15.55
2023-01-01T04:00:04.192Z,15.60
2023-01-01T04:01:04.197Z,15.53
2023-01-01T04:02:04.244Z,15.55
2023-01-01T04:03:04.096Z,15.51
2023-01-01T04:04:04.019Z,15.59
2023-01-01T04:05:03.990Z,15.56
2023-01-01T04:06:03.941Z,15.67
2023-01-01T04:07:14.648Z,15.67
2023-01-01T04:08:03.863Z,15.66
2023-01-01T04:09:03.836Z,15.64
2023-01-01T04:10:03.783Z,15.62
2023-01-01T04:11:03.743Z,15.68
2023-01-01T04:12:03.714Z,15.55
2023-01-01T04:13:03.665Z,15.56
2023-01-01T04:14:03.636Z,15.56
2023-01-01T04:15:03.599Z,15.71
2023-01-01T04:16:03.583Z,15.66
2023-01-01T04:17:03.511Z,15.51
2023-01-01T04:18:03.473Z,15.64
2023-01-01T04:19:03.432Z,15.60
2023-01-01T04:20:03.391Z,15.51
2023-01-01T04:21:03.373Z,15.58
2023-01-01T04:22:03.321Z,15.58
2023-01-01T04:23:03.279Z,15.71
2023-01-01T04:24:03.263Z,15.62
2023-01-01T04:25:03.200Z,15.48
2023-01-01T04:26:03.168Z,15.59
2023-01-01T04:27:03.135Z,15.52
2023-01-01T04:28:03.087Z,15.58
2023-01-01T04:29:03.049Z,15.59
2023-01-01T04:30:03.009Z,15.58
2023-01-01T04:31:02.972Z,15.49
2023-01-01T04:32:02.943Z,15.60
2023-01-01T04:33:02.892Z,15.52
2023-01-01T04:34:02.849Z,15.56
2023-01-01T04:35:02.813Z,15.52
2023-01-01T04:36:02.779Z,15.64
2023-01-01T04:37:05.747Z,15.59
2023-01-01T04:38:02.710Z,15.60
2023-01-01T04:39:02.667Z,15.56
2023-01-01T04:40:02.632Z,15.53
2023-01-01T04:41:02.582Z,15.53
2023-01-01T04:42:02.539Z,15.51
2023-01-01T04:43:02.520Z,15.55
2023-01-01T04:44:02.477Z,15.52
2023-01-01T04:45:02.423Z,15.51
2023-01-01T04:46:02.453Z,15.53
2023-01-01T04:47:02.346Z,15.46
2023-01-01T04:48:02.302Z,15.53
2023-01-01T04:49:02.276Z,15.51
2023-01-01T04:50:02.237Z,15.37
2023-01-01T04:51:02.210Z,15.35
2023-01-01T04:52:02.164Z,15.38
2023-01-01T04:53:02.118Z,15.40
2023-01-01T04:54:02.071Z,15.43
2023-01-01T04:55:02.034Z,15.35
2023-01-01T04:56:01.997Z,15.35
2023-01-01T04:57:01.969Z,15.38
2023-01-01T04:58:01.936Z,15.30
2023-01-01T04:59:01.880Z,15.37
2023-01-01T05:00:01.869Z,15.30
2023-01-01T05:01:01.900Z,15.33
2023-01-01T05:02:01.978Z,15.27
2023-01-01T05:03:01.783Z,15.31
2023-01-01T05:04:01.711Z,15.25
2023-01-01T05:05:01.652Z,15.18
2023-01-01T05:06:01.601Z,15.35
2023-01-01T05:07:01.572Z,15.34
2023-01-01T05:08:01.527Z,15.25
2023-01-01T05:09:01.488Z,15.27
2023-01-01T05:10:01.462Z,15.33
2023-01-01T05:11:01.419Z,15.31
2023-01-01T05:12:01.380Z,15.20
2023-01-01T05:13:01.343Z,15.31
2023-01-01T05:14:01.297Z,15.23
2023-01-01T05:15:01.269Z,15.20
2023-01-01T05:16:01.265Z,15.25
2023-01-01T05:17:01.194Z,15.19
2023-01-01T05:18:01.139Z,15.07
2023-01-01T05:19:01.112Z,15.13
2023-01-01T05:20:01.078Z,15.16
2023-01-01T05:21:01.043Z,15.07
2023-01-01T05:22:11.207Z,15.13
2023-01-01T05:23:00.944Z,15.22
2023-01-01T05:24:00.908Z,15.15
2023-01-01T05:25:00.863Z,15.18
2023-01-01T05:26:00.827Z,15.18
2023-01-01T05:27:00.800Z,15.12
2023-01-01T05:28:00.755Z,15.09
2023-01-01T05:29:00.720Z,15.20
2023-01-01T05:30:00.673Z,15.13
2023-01-01T05:31:00.643Z,15.11
2023-01-01T05:32:00.637Z,15.25
2023-01-01T05:33:00.553Z,15.28
2023-01-01T05:34:21.533Z,15.23
2023-01-01T05:35:00.475Z,15.23
2023-01-01T05:36:00.443Z,15.23
2023-01-01T05:37:00.398Z,15.20
2023-01-01T05:38:00.358Z,15.31
2023-01-01T05:39:00.331Z,15.35
2023-01-01T05:40:00.277Z,15.30
2023-01-01T05:41:00.241Z,15.37
2023-01-01T05:42:00.203Z,15.31
2023-01-01T05:43:00.165Z,15.33
2023-01-01T05:44:00.123Z,15.27
2023-01-01T05:45:00.111Z,15.30
2023-01-01T05:46:00.081Z,15.30
2023-01-01T05:47:00.013Z,15.27
2023-01-01T05:47:59.973Z,15.23
2023-01-01T05:48:59.959Z,15.25
2023-01-01T05:49:59.890Z,15.27
2023-01-01T05:50:59.861Z,15.25
2023-01-01T05:51:59.818Z,15.33
2023-01-01T05:53:00.643Z,15.35
2023-01-01T05:53:59.738Z,15.30
2023-01-01T05:54:59.691Z,15.28
2023-01-01T05:55:59.658Z,15.33
2023-01-01T05:56:59.627Z,15.30
2023-01-01T05:57:59.577Z,15.28
2023-01-01T05:58:59.543Z,15.31
2023-01-01T05:59:59.499Z,15.28
2023-01-01T06:00:59.487Z,15.31
2023-01-01T06:01:59.517Z,15.20
2023-01-01T06:02:59.422Z,15.23
2023-01-01T06:03:59.451Z,15.25
2023-01-01T06:04:59.304Z,15.23
2023-01-01T06:05:59.266Z,15.31
2023-01-01T06:06:59.224Z,15.30
2023-01-01T06:07:59.190Z,15.30
2023-01-01T06:08:59.155Z,15.30
2023-01-01T06:09:59.108Z,15.25
2023-01-01T06:10:59.067Z,15.35
2023-01-01T06:11:59.031Z,15.28
2023-01-01T06:12:58.995Z,15.23
2023-01-01T06:13:58.967Z,15.28
2023-01-01T06:14:58.907Z,15.22
2023-01-01T06:15:58.872Z,15.20
2023-01-01T06:16:58.891Z,15.28
2023-01-01T06:17:58.801Z,15.22
2023-01-01T06:18:58.758Z,15.22
2023-01-01T06:19:58.729Z,15.19
2023-01-01T06:20:58.686Z,15.23
2023-01-01T06:21:58.649Z,15.31
2023-01-01T06:22:58.613Z,15.31
2023-01-01T06:23:58.588Z,15.25
2023-01-01T06:24:58.521Z,15.31
2023-01-01T06:25:58.483Z,15.30
2023-01-01T06:26:58.444Z,15.25
2023-01-01T06:27:58.406Z,15.37
2023-01-01T06:28:58.377Z,15.30
2023-01-01T06:29:58.329Z,15.34
2023-01-01T06:30:58.351Z,15.38
2023-01-01T06:31:58.251Z,15.37
2023-01-01T06:32:59.137Z,15.40
2023-01-01T06:33:58.172Z,15.40
2023-01-01T06:34:58.150Z,15.40
2023-01-01T06:35:58.094Z,15.25
2023-01-01T06:37:03.036Z,15.41
2023-01-01T06:37:58.023Z,15.38
2023-01-01T06:38:57.978Z,15.40
2023-01-01T06:39:57.945Z,15.35
2023-01-01T06:40:57.914Z,15.34
2023-01-01T06:41:57.868Z,15.34
2023-01-01T06:42:57.818Z,15.48
2023-01-01T06:43:57.784Z,15.34
2023-01-01T06:44:57.739Z,15.38
2023-01-01T06:45:57.700Z,15.28
2023-01-01T06:46:57.689Z,15.28
2023-01-01T06:47:57.625Z,15.27
2023-01-01T06:48:57.587Z,15.28
2023-01-01T06:49:57.549Z,15.30
2023-01-01T06:50:57.501Z,15.23
2023-01-01T06:51:57.469Z,15.27
2023-01-01T06:52:57.476Z,15.19
2023-01-01T06:53:57.391Z,15.28
2023-01-01T06:54:57.347Z,15.34
2023-01-01T06:55:57.679Z,15.33
2023-01-01T06:56:57.271Z,15.28
2023-01-01T06:57:57.235Z,15.25
2023-01-01T06:58:57.213Z,15.34
2023-01-01T06:59:57.186Z,15.34
2023-01-01T07:00:57.132Z,15.27
2023-01-01T07:01:57.166Z,15.31
2023-01-01T07:02:57.183Z,15.30
2023-01-01T07:03:56.996Z,15.28
2023-01-01T07:04:56.962Z,15.23
2023-01-01T07:05:56.933Z,15.22
2023-01-01T07:06:56.882Z,15.25
2023-01-01T07:07:56.854Z,15.30
2023-01-01T07:08:56.812Z,15.25
2023-01-01T07:09:56.770Z,15.19
2023-01-01T07:10:56.721Z,15.22
2023-01-01T07:11:56.701Z,15.30
2023-01-01T07:12:56.652Z,15.23
2023-01-01T07:13:56.619Z,15.28
2023-01-01T07:14:56.570Z,15.34
2023-01-01T07:15:56.573Z,15.38
2023-01-01T07:16:56.505Z,15.25
2023-01-01T07:17:56.457Z,15.34
2023-01-01T07:18:56.416Z,15.30
2023-01-01T07:19:56.377Z,15.35
2023-01-01T07:20:56.340Z,15.28
2023-01-01T07:21:56.299Z,15.33
2023-01-01T07:22:56.270Z,15.31
2023-01-01T07:23:56.234Z,15.38
2023-01-01T07:24:56.181Z,15.40
2023-01-01T07:25:56.159Z,15.43
2023-01-01T07:26:56.107Z,15.40
2023-01-01T07:27:56.068Z,15.46
2023-01-01T07:29:02.546Z,15.52
2023-01-01T07:29:56.003Z,15.56
2023-01-01T07:30:56.030Z,15.49
2023-01-01T07:31:55.909Z,15.43
2023-01-01T07:32:55.931Z,15.48
2023-01-01T07:33:55.855Z,15.48
2023-01-01T07:34:55.801Z,15.52
2023-01-01T07:35:55.753Z,15.46
2023-01-01T07:36:55.709Z,15.53
2023-01-01T07:37:55.672Z,15.49
2023-01-01T07:38:55.643Z,15.51
2023-01-01T07:39:55.611Z,15.56
2023-01-01T07:40:55.562Z,15.52
2023-01-01T07:41:55.533Z,15.44
2023-01-01T07:42:55.482Z,15.43
2023-01-01T07:43:55.465Z,15.41
2023-01-01T07:44:55.401Z,15.38
2023-01-01T07:45:55.385Z,15.31
2023-01-01T07:46:55.374Z,15.25
2023-01-01T07:47:55.295Z,15.28
2023-01-01T07:48:55.249Z,15.33
2023-01-01T07:49:55.209Z,15.31
2023-01-01T07:50:55.161Z,15.27
2023-01-01T07:51:55.128Z,15.18
2023-01-01T07:52:55.122Z,15.15
2023-01-01T07:53:57.208Z,15.04
2023-01-01T07:54:55.008Z,15.15
2023-01-01T07:55:54.970Z,15.15
2023-01-01T07:56:54.938Z,15.22
2023-01-01T07:57:54.894Z,15.18
2023-01-01T07:58:54.855Z,15.05
2023-01-01T07:59:54.822Z,15.18
2023-01-01T08:00:54.780Z,15.11
2023-01-01T08:01:54.846Z,15.15
2023-01-01T08:02:54.773Z,15.25
2023-01-01T08:03:54.661Z,15.20
2023-01-01T08:04:54.615Z,15.20
2023-01-01T08:05:54.587Z,15.19
2023-01-01T08:06:54.534Z,15.11
2023-01-01T08:07:54.497Z,15.15
2023-01-01T08:08:54.455Z,15.09
2023-01-01T08:09:54.426Z,15.22
2023-01-01T08:10:57.678Z,15.11
2023-01-01T08:11:54.359Z,15.13
2023-01-01T08:12:54.298Z,15.19
2023-01-01T08:13:54.266Z,15.12
2023-01-01T08:14:54.220Z,15.19
2023-01-01T08:15:54.205Z,15.19
2023-01-01T08:16:54.142Z,15.11
2023-01-01T08:17:54.119Z,15.01
2023-01-01T08:18:54.066Z,15.11
2023-01-01T08:19:54.043Z,15.11
2023-01-01T08:20:53.990Z,15.03
2023-01-01T08:21:53.945Z,15.05
2023-01-01T08:22:53.906Z,14.95
2023-01-01T08:23:53.879Z,15.09
2023-01-01T08:24:53.830Z,15.01
2023-01-01T08:25:53.803Z,15.07
2023-01-01T08:26:53.749Z,15.07
2023-01-01T08:27:53.713Z,15.03
2023-01-01T08:28:57.331Z,14.97
2023-01-01T08:29:53.643Z,14.93
2023-01-01T08:30:53.632Z,15.09
2023-01-01T08:31:53.555Z,15.03
2023-01-01T08:32:53.516Z,15.03
2023-01-01T08:33:53.475Z,15.03
2023-01-01T08:34:53.435Z,15.04
2023-01-01T08:35:54.529Z,15.07
2023-01-01T08:36:53.375Z,15.15
2023-01-01T08:37:53.324Z,15.09
2023-01-01T08:38:53.289Z,15.15
2023-01-01T08:39:53.244Z,15.03
2023-01-01T08:40:53.198Z,15.12
2023-01-01T08:41:53.163Z,15.11
2023-01-01T08:42:53.128Z,15.05
2023-01-01T08:43:53.253Z,14.97
2023-01-01T08:44:53.044Z,14.98
2023-01-01T08:45:53.005Z,15.03
2023-01-01T08:46:53.044Z,15.05
2023-01-01T08:47:52.926Z,15.00
2023-01-01T08:48:52.896Z,14.93
2023-01-01T08:49:52.928Z,14.98
2023-01-01T08:50:52.804Z,15.03
2023-01-01T08:51:52.770Z,15.01
2023-01-01T08:52:52.736Z,14.93
2023-01-01T08:53:52.691Z,15.05
2023-01-01T08:54:52.675Z,15.01
2023-01-01T08:55:52.613Z,14.97
2023-01-01T08:56:52.577Z,15.00
2023-01-01T08:57:52.548Z,15.07
2023-01-01T08:58:52.525Z,15.11
2023-01-01T08:59:52.456Z,15.00
2023-01-01T09:00:52.433Z,14.97
2023-01-01T09:01:52.570Z,14.91
2023-01-01T09:02:52.514Z,15.05
2023-01-01T09:03:52.315Z,14.95
2023-01-01T09:04:52.266Z,15.03
2023-01-01T09:05:52.219Z,14.97
2023-01-01T09:06:52.196Z,15.09
2023-01-01T09:07:52.142Z,15.05
2023-01-01T09:08:52.104Z,15.04
2023-01-01T09:09:52.065Z,15.04
2023-01-01T09:10:52.026Z,15.00
2023-01-01T09:11:51.983Z,15.03
2023-01-01T09:12:51.964Z,15.03
2023-01-01T09:13:51.937Z,15.13
2023-01-01T09:14:51.874Z,15.07
2023-01-01T09:15:51.876Z,15.09
2023-01-01T09:16:51.855Z,15.07
2023-01-01T09:17:51.767Z,14.97
2023-01-01T09:18:51.732Z,15.04
2023-01-01T09:19:51.672Z,15.04
2023-01-01T09:20:51.635Z,14.98
2023-01-01T09:21:51.621Z,15.07
2023-01-01T09:22:51.558Z,15.04
2023-01-01T09:23:51.518Z,15.05
2023-01-01T09:24:51.493Z,15.05
2023-01-01T09:25:51.439Z,14.97
2023-01-01T09:26:51.401Z,15.07
2023-01-01T09:27:51.362Z,15.05
2023-01-01T09:28:51.321Z,15.01
2023-01-01T09:29:51.286Z,15.09
2023-01-01T09:30:51.263Z,15.07
2023-01-01T09:31:51.245Z,15.05
2023-01-01T09:32:51.178Z,15.04
2023-01-01T09:33:51.129Z,15.09
2023-01-01T09:34:52.707Z,15.15
2023-01-01T09:35:51.048Z,15.01
2023-01-01T09:36:51.018Z,15.04
2023-01-01T09:37:50.971Z,15.15
2023-01-01T09:38:50.959Z,15.18
2023-01-01T09:39:50.911Z,15.18
2023-01-01T09:40:51.580Z,15.20
2023-01-01T09:41:50.815Z,15.20
2023-01-01T09:42:50.776Z,15.23
2023-01-01T09:43:50.744Z,15.28
2023-01-01T09:44:50.698Z,15.31
2023-01-01T09:45:50.739Z,15.22
2023-01-01T09:46:50.621Z,15.35
2023-01-01T09:47:50.582Z,15.38
2023-01-01T09:48:50.549Z,15.30
2023-01-01T09:49:50.506Z,15.33
2023-01-01T09:50:50.476Z,15.43
2023-01-01T09:51:57.534Z,15.33
2023-01-01T09:52:50.402Z,15.30
2023-01-01T09:53:50.356Z,15.30
2023-01-01T09:54:50.314Z,15.25
2023-01-01T09:55:50.276Z,15.28
2023-01-01T09:56:50.252Z,15.31
2023-01-01T09:57:50.195Z,15.27
2023-01-01T09:58:50.162Z,15.27
2023-01-01T09:59:50.116Z,15.28
2023-01-01T10:00:50.117Z,15.25
2023-01-01T10:01:50.160Z,15.27
2023-01-01T10:02:53.607Z,15.20
2023-01-01T10:03:49.977Z,15.28
2023-01-01T10:04:49.925Z,15.27
2023-01-01T10:05:49.889Z,15.23
2023-01-01T10:06:49.848Z,15.15
2023-01-01T10:07:49.810Z,15.22
2023-01-01T10:08:49.781Z,15.22
2023-01-01T10:09:49.737Z,15.19
2023-01-01T10:10:49.702Z,15.23
2023-01-01T10:11:49.651Z,15.15
2023-01-01T10:12:49.628Z,15.19
2023-01-01T10:13:49.589Z,15.09
2023-01-01T10:14:49.539Z,15.09
2023-01-01T10:15:49.498Z,15.13
2023-01-01T10:16:49.478Z,15.18
2023-01-01T10:17:49.421Z,15.20
2023-01-01T10:18:49.395Z,15.27
2023-01-01T10:19:49.354Z,15.22
2023-01-01T10:20:49.303Z,15.19
2023-01-01T10:21:49.266Z,15.28
2023-01-01T10:22:49.232Z,15.30
2023-01-01T10:23:49.188Z,15.22
2023-01-01T10:24:49.148Z,15.28
2023-01-01T10:25:49.124Z,15.25
2023-01-01T10:26:49.078Z,15.25
2023-01-01T10:27:53.849Z,15.19
2023-01-01T10:28:48.997Z,15.27
2023-01-01T10:29:48.953Z,15.28
2023-01-01T10:30:48.928Z,15.23
2023-01-01T10:31:48.941Z,15.23
2023-01-01T10:32:48.849Z,15.20
2023-01-01T10:33:48.798Z,15.28
2023-01-01T10:34:48.762Z,15.27
2023-01-01T10:35:48.726Z,15.23
2023-01-01T10:36:48.687Z,15.25
2023-01-01T10:37:48.668Z,15.31
2023-01-01T10:38:48.615Z,15.27
2023-01-01T10:39:48.571Z,15.30
2023-01-01T10:40:48.536Z,15.25
2023-01-01T10:41:48.513Z,15.40
2023-01-01T10:42:48.449Z,15.30
2023-01-01T10:43:48.425Z,15.30
2023-01-01T10:44:48.385Z,15.28
2023-01-01T10:45:48.407Z,15.30
2023-01-01T10:46:48.298Z,15.11
2023-01-01T10:47:48.261Z,15.30
2023-01-01T10:48:48.220Z,15.15
2023-01-01T10:49:48.190Z,15.23
2023-01-01T10:50:48.152Z,15.19
2023-01-01T10:51:48.112Z,15.19
2023-01-01T10:52:48.067Z,15.13
2023-01-01T10:53:48.027Z,15.09
2023-01-01T10:54:47.990Z,15.22
2023-01-01T10:55:47.977Z,15.25
2023-01-01T10:56:47.919Z,15.18
2023-01-01T10:57:47.887Z,15.18
2023-01-01T10:58:47.839Z,15.23
2023-01-01T10:59:53.781Z,15.20
2023-01-01T11:00:47.836Z,15.18
2023-01-01T11:01:47.815Z,15.19
2023-01-01T11:02:47.764Z,15.16
2023-01-01T11:03:47.638Z,15.23
2023-01-01T11:04:47.604Z,15.19
2023-01-01T11:05:47.563Z,15.12
2023-01-01T11:06:47.538Z,15.18
2023-01-01T11:07:47.486Z,15.27
2023-01-01T11:08:47.448Z,15.22
2023-01-01T11:10:02.164Z,15.19
2023-01-01T11:10:47.368Z,15.16
2023-01-01T11:11:47.339Z,15.19
2023-01-01T11:13:04.890Z,15.15
2023-01-01T11:13:47.252Z,15.20
2023-01-01T11:14:47.220Z,15.23
2023-01-01T11:15:47.174Z,15.19
2023-01-01T11:16:47.210Z,15.18
2023-01-01T11:17:47.183Z,15.11
2023-01-01T11:18:47.068Z,15.11
2023-01-01T11:19:51.298Z,15.22
2023-01-01T11:20:47.006Z,15.09
2023-01-01T11:21:46.950Z,15.19
2023-01-01T11:22:55.779Z,15.20
2023-01-01T11:23:46.879Z,15.30
2023-01-01T11:24:46.841Z,15.28
2023-01-01T11:25:46.787Z,15.23
2023-01-01T11:26:54.007Z,15.33
2023-01-01T11:27:46.708Z,15.28
2023-01-01T11:28:46.671Z,15.25
2023-01-01T11:29:46.645Z,15.22
2023-01-01T11:30:46.615Z,15.23
2023-01-01T11:31:46.550Z,15.27
2023-01-01T11:32:50.532Z,15.28
2023-01-01T11:33:46.487Z,15.27
2023-01-01T11:34:46.434Z,15.25
2023-01-01T11:35:46.407Z,15.30
2023-01-01T11:36:46.409Z,15.22
2023-01-01T11:37:46.319Z,15.23
2023-01-01T11:38:46.283Z,15.25
2023-01-01T11:39:46.248Z,15.20
2023-01-01T11:40:46.203Z,15.11
2023-01-01T11:41:46.187Z,15.23
2023-01-01T11:42:46.146Z,15.23
2023-01-01T11:43:46.092Z,15.22
2023-01-01T11:44:46.070Z,15.19
2023-01-01T11:45:46.155Z,15.27
2023-01-01T11:46:45.977Z,15.25
2023-01-01T11:47:45.953Z,15.19
2023-01-01T11:48:45.897Z,15.30
2023-01-01T11:49:45.857Z,15.23
2023-01-01T11:50:51.924Z,15.23
2023-01-01T11:51:45.775Z,15.19
2023-01-01T11:52:45.748Z,15.30
2023-01-01T11:53:45.733Z,15.19
2023-01-01T11:54:45.661Z,15.31
2023-01-01T11:55:45.624Z,15.22
2023-01-01T11:56:45.589Z,15.31
2023-01-01T11:57:45.544Z,15.33
2023-01-01T11:58:45.551Z,15.31
2023-01-01T11:59:45.486Z,15.34
2023-01-01T12:00:45.432Z,15.33
2023-01-01T12:01:45.434Z,15.41
2023-01-01T12:02:45.387Z,15.33
2023-01-01T12:03:45.457Z,15.34
2023-01-01T12:04:45.278Z,15.35
2023-01-01T12:05:45.248Z,15.44
2023-01-01T12:06:45.195Z,15.46
2023-01-01T12:07:45.155Z,15.31
2023-01-01T12:08:45.122Z,15.30
2023-01-01T12:09:45.103Z,15.48
2023-01-01T12:10:45.043Z,15.37
2023-01-01T12:11:45.016Z,15.34
2023-01-01T12:12:44.972Z,15.37
2023-01-01T12:13:44.930Z,15.33
2023-01-01T12:14:44.889Z,15.35
2023-01-01T12:15:44.902Z,15.28
2023-01-01T12:16:44.810Z,15.35
2023-01-01T12:17:44.770Z,15.23
2023-01-01T12:18:44.736Z,15.37
2023-01-01T12:19:44.708Z,15.33
2023-01-01T12:20:44.669Z,15.34
2023-01-01T12:21:50.780Z,15.38
2023-01-01T12:22:44.581Z,15.38
2023-01-01T12:23:44.543Z,15.30
2023-01-01T12:24:44.504Z,15.34
2023-01-01T12:25:44.474Z,15.40
2023-01-01T12:26:44.426Z,15.34
2023-01-01T12:27:44.388Z,15.38
2023-01-01T12:28:44.363Z,15.40
2023-01-01T12:29:44.316Z,15.38
2023-01-01T12:30:44.272Z,15.43
2023-01-01T12:31:44.294Z,15.40
2023-01-01T12:32:44.193Z,15.44
2023-01-01T12:33:44.168Z,15.40
2023-01-01T12:34:44.115Z,15.43
2023-01-01T12:35:44.085Z,15.48
2023-01-01T12:36:44.055Z,15.34
2023-01-01T12:37:44.010Z,15.37
2023-01-01T12:38:43.961Z,15.38
2023-01-01T12:39:43.921Z,15.46
2023-01-01T12:40:43.896Z,15.44
2023-01-01T12:41:43.857Z,15.38
2023-01-01T12:42:43.821Z,15.30
2023-01-01T12:43:43.770Z,15.43
2023-01-01T12:44:43.729Z,15.43
2023-01-01T12:45:43.698Z,15.35
2023-01-01T12:46:43.707Z,15.40
2023-01-01T12:47:43.629Z,15.37
2023-01-01T12:48:43.591Z,15.34
2023-01-01T12:49:43.632Z,15.38
2023-01-01T12:50:47.870Z,15.37
2023-01-01T12:51:43.464Z,15.37